Time;durP1;ratioP1;P1;durP2;ratioP2;P2;SDS_P1;SDS_P2;PMS_P1;PMS_P2;Temp;Humidity;BMP_temperature;BMP_pressure;BME280_temperature;BME280_humidity;BME280_pressure;Samples;Min_cycle;Max_cycle;Signal;HPM_P1;HPM_P2
2022/01/08 00:00:31;;;;;;;13.15;2.30;;;;;;;;;;5025012;28;20037;-79
2022/01/08 00:02:57;;;;;;;4.85;2.03;;;;;;;;;;5025120;28;20057;-79
2022/01/08 00:05:23;;;;;;;7.03;2.38;;;;;;;;;;5023992;28;20041;-80
2022/01/08 00:07:50;;;;;;;6.80;2.20;;;;;;;;;;5031060;28;20445;-80
2022/01/08 00:10:16;;;;;;;7.00;2.28;;;;;;;;;;5021132;28;20139;-79
2022/01/08 00:12:43;;;;;;;4.65;1.90;;;;;;;;;;5010435;28;20041;-79
2022/01/08 00:15:09;;;;;;;7.75;2.00;;;;;;;;;;5008509;28;20444;-79
2022/01/08 00:17:36;;;;;;;10.38;2.05;;;;;;;;;;5011141;28;20084;-79
2022/01/08 00:20:02;;;;;;;8.00;2.15;;;;;;;;;;5024990;28;20057;-79
2022/01/08 00:22:28;;;;;;;8.18;2.00;;;;;;;;;;5007662;28;20386;-78
2022/01/08 00:24:54;;;;;;;5.13;1.80;;;;;;;;;;5023934;28;20111;-78
2022/01/08 00:27:21;;;;;;;4.45;1.50;;;;;;;;;;5027542;28;20091;-78
2022/01/08 00:29:47;;;;;;;4.78;1.60;;;;;;;;;;5006128;28;20069;-78
2022/01/08 00:32:14;;;;;;;2.45;1.50;;;;;;;;;;5026541;28;20056;-78
2022/01/08 00:34:49;;;;;;;3.13;1.33;;;;;;;;;;5020964;28;20049;-79
2022/01/08 00:37:15;;;;;;;4.45;1.70;;;;;;;;;;5012063;28;20389;-79
2022/01/08 00:39:41;;;;;;;2.45;1.50;;;;;;;;;;5025507;28;20080;-78
2022/01/08 00:42:07;;;;;;;3.75;1.73;;;;;;;;;;5026014;28;20041;-79
2022/01/08 00:44:33;;;;;;;3.22;1.83;;;;;;;;;;5024677;28;20042;-79
2022/01/08 00:46:59;;;;;;;5.60;2.00;;;;;;;;;;5026755;28;20111;-79
2022/01/08 00:49:25;;;;;;;4.15;1.42;;;;;;;;;;5025293;28;20052;-78
2022/01/08 00:51:52;;;;;;;5.50;1.90;;;;;;;;;;5025560;28;20082;-79
2022/01/08 00:54:18;;;;;;;8.85;2.17;;;;;;;;;;5013281;28;20450;-79
2022/01/08 00:56:44;;;;;;;5.90;1.80;;;;;;;;;;5010301;28;20382;-78
2022/01/08 00:59:10;;;;;;;3.80;1.77;;;;;;;;;;5025723;28;20053;-79
2022/01/08 01:01:36;;;;;;;6.97;1.83;;;;;;;;;;5031225;28;20049;-78
2022/01/08 01:04:02;;;;;;;5.32;1.85;;;;;;;;;;5013689;28;20049;-79
2022/01/08 01:06:28;;;;;;;5.38;1.92;;;;;;;;;;5030896;28;20073;-79
2022/01/08 01:08:54;;;;;;;6.43;1.80;;;;;;;;;;5029186;28;20117;-79
2022/01/08 01:11:20;;;;;;;6.43;2.08;;;;;;;;;;5012163;28;20125;-79
2022/01/08 01:13:46;;;;;;;4.72;1.80;;;;;;;;;;5013132;28;20460;-79
2022/01/08 01:16:12;;;;;;;5.25;1.85;;;;;;;;;;5026092;28;20045;-79
2022/01/08 01:18:38;;;;;;;5.35;1.60;;;;;;;;;;5030535;28;21782;-79
2022/01/08 01:21:05;;;;;;;6.28;1.88;;;;;;;;;;5030029;28;20048;-79
2022/01/08 01:23:39;;;;;;;6.45;1.80;;;;;;;;;;5013495;28;20045;-79
2022/01/08 01:26:09;;;;;;;3.53;1.88;;;;;;;;;;5028827;28;20041;-78
2022/01/08 01:29:01;;;;;;;5.57;2.10;;;;;;;;;;5030335;28;20060;-79
2022/01/08 01:47:18;;;;;;;5.90;1.80;;;;;;;;;;5008010;28;20054;-79
2022/01/08 01:49:48;;;;;;;6.32;2.05;;;;;;;;;;5024594;28;20551;-79
2022/01/08 01:52:15;;;;;;;5.30;1.75;;;;;;;;;;5028064;28;20086;-79
2022/01/08 01:54:42;;;;;;;5.28;2.00;;;;;;;;;;5009701;28;20466;-79
2022/01/08 01:57:09;;;;;;;5.80;1.70;;;;;;;;;;5009111;28;20137;-79
2022/01/08 01:59:35;;;;;;;3.75;1.60;;;;;;;;;;5029843;28;20037;-79
2022/01/08 02:02:02;;;;;;;9.10;2.03;;;;;;;;;;5029018;28;20045;-79
2022/01/08 02:04:28;;;;;;;9.43;2.17;;;;;;;;;;5029628;28;20044;-78
2022/01/08 02:06:57;;;;;;;4.15;1.90;;;;;;;;;;5029698;28;20481;-79
2022/01/08 02:09:23;;;;;;;7.18;2.63;;;;;;;;;;5026162;28;20050;-79
2022/01/08 02:11:59;;;;;;;8.70;2.25;;;;;;;;;;5029113;28;20702;-78
2022/01/08 02:14:26;;;;;;;5.60;1.80;;;;;;;;;;5008680;28;20037;-78
2022/01/08 02:16:52;;;;;;;5.68;1.90;;;;;;;;;;5010691;28;20049;-78
2022/01/08 02:19:18;;;;;;;10.02;2.42;;;;;;;;;;5008709;28;20444;-78
2022/01/08 02:21:51;;;;;;;7.75;2.20;;;;;;;;;;5012022;28;20133;-78
2022/01/08 02:24:17;;;;;;;8.82;2.35;;;;;;;;;;5005224;28;20060;-77
2022/01/08 02:26:44;;;;;;;5.10;1.95;;;;;;;;;;5013628;28;20045;-78
2022/01/08 02:29:11;;;;;;;6.75;2.13;;;;;;;;;;5009239;28;20089;-78
2022/01/08 02:31:37;;;;;;;8.43;2.28;;;;;;;;;;5012396;28;20042;-77
2022/01/08 02:34:04;;;;;;;8.73;2.10;;;;;;;;;;5028335;28;20077;-78
2022/01/08 02:36:30;;;;;;;5.22;2.13;;;;;;;;;;5011460;28;20044;-78
2022/01/08 02:38:56;;;;;;;5.03;2.22;;;;;;;;;;5009959;28;20128;-77
2022/01/08 02:41:22;;;;;;;6.97;2.90;;;;;;;;;;5010797;28;20128;-77
2022/01/08 02:43:53;;;;;;;11.02;2.85;;;;;;;;;;5009327;28;20170;-78
2022/01/08 02:46:19;;;;;;;7.40;2.60;;;;;;;;;;5027056;28;20049;-78
2022/01/08 02:48:45;;;;;;;7.90;2.58;;;;;;;;;;5011302;28;20492;-78
2022/01/08 02:51:11;;;;;;;9.80;2.40;;;;;;;;;;5027397;28;20050;-77
2022/01/08 02:53:37;;;;;;;5.03;2.08;;;;;;;;;;5009805;28;20072;-77
2022/01/08 02:56:03;;;;;;;4.93;2.05;;;;;;;;;;5010769;28;20037;-77
2022/01/08 02:58:29;;;;;;;4.68;2.03;;;;;;;;;;5011318;28;20049;-78
2022/01/08 03:00:59;;;;;;;5.38;1.38;;;;;;;;;;5009090;28;20116;-78
2022/01/08 03:03:25;;;;;;;3.38;1.63;;;;;;;;;;5011288;28;20067;-78
2022/01/08 03:05:51;;;;;;;5.00;1.70;;;;;;;;;;5010642;28;20064;-77
2022/01/08 03:08:17;;;;;;;6.03;2.38;;;;;;;;;;5011180;28;20041;-77
2022/01/08 03:10:43;;;;;;;2.13;1.77;;;;;;;;;;5008445;28;20049;-78
2022/01/08 03:13:09;;;;;;;6.85;1.88;;;;;;;;;;5010391;28;20106;-77
2022/01/08 03:15:37;;;;;;;3.00;1.60;;;;;;;;;;5010824;28;20060;-78
2022/01/08 03:18:03;;;;;;;9.00;2.38;;;;;;;;;;5008781;28;20375;-77
2022/01/08 03:20:30;;;;;;;8.80;2.47;;;;;;;;;;5009355;28;20049;-77
2022/01/08 03:23:02;;;;;;;8.55;2.40;;;;;;;;;;5012351;28;20041;-77
2022/01/08 03:25:28;;;;;;;6.93;2.00;;;;;;;;;;5019248;28;20054;-77
2022/01/08 03:27:54;;;;;;;7.38;2.60;;;;;;;;;;5026489;28;20045;-77
2022/01/08 03:30:21;;;;;;;6.30;2.33;;;;;;;;;;5019556;28;20095;-77
2022/01/08 03:32:47;;;;;;;7.22;1.95;;;;;;;;;;5011049;28;20052;-78
2022/01/08 03:35:13;;;;;;;8.45;2.03;;;;;;;;;;5026458;28;20049;-78
2022/01/08 03:37:39;;;;;;;11.75;2.65;;;;;;;;;;5011740;28;20067;-77
2022/01/08 03:40:06;;;;;;;6.82;2.15;;;;;;;;;;5011347;28;20049;-78
2022/01/08 03:42:32;;;;;;;7.38;2.20;;;;;;;;;;5010035;28;20057;-77
2022/01/08 03:44:58;;;;;;;7.45;2.03;;;;;;;;;;5028658;28;20512;-78
2022/01/08 03:49:53;;;;;;;5.22;2.20;;;;;;;;;;5028970;28;20041;-78
2022/01/08 03:52:19;;;;;;;8.77;2.20;;;;;;;;;;5025221;28;20057;-78
2022/01/08 03:54:45;;;;;;;4.10;1.98;;;;;;;;;;5005989;28;20045;-77
2022/01/08 03:57:11;;;;;;;4.30;1.98;;;;;;;;;;5010632;28;20215;-77
2022/01/08 03:59:38;;;;;;;7.00;2.03;;;;;;;;;;5026410;28;20143;-77
2022/01/08 04:02:04;;;;;;;5.28;1.90;;;;;;;;;;5022930;28;20046;-77
2022/01/08 04:04:30;;;;;;;4.43;2.00;;;;;;;;;;5009981;28;20084;-77
2022/01/08 04:06:56;;;;;;;8.05;2.38;;;;;;;;;;5026881;28;20037;-77
2022/01/08 04:09:22;;;;;;;5.55;2.28;;;;;;;;;;5024891;28;20054;-77
2022/01/08 04:11:49;;;;;;;8.30;2.03;;;;;;;;;;5024113;28;20486;-77
2022/01/08 04:14:16;;;;;;;7.47;2.00;;;;;;;;;;5008143;28;20061;-77
2022/01/08 04:16:46;;;;;;;8.85;2.17;;;;;;;;;;5029332;28;20045;-77
2022/01/08 04:19:12;;;;;;;6.05;2.10;;;;;;;;;;5026035;28;20095;-77
2022/01/08 04:24:08;;;;;;;10.35;2.40;;;;;;;;;;5007473;28;20390;-77
2022/01/08 04:26:34;;;;;;;9.82;2.50;;;;;;;;;;5001534;28;20053;-77
2022/01/08 04:29:00;;;;;;;12.13;2.55;;;;;;;;;;5009171;28;20051;-77
2022/01/08 04:31:26;;;;;;;8.38;2.47;;;;;;;;;;5009284;28;20130;-77
2022/01/08 04:33:53;;;;;;;8.00;2.22;;;;;;;;;;5008674;28;20142;-77
2022/01/08 04:36:19;;;;;;;5.60;2.20;;;;;;;;;;5008365;28;20050;-77
2022/01/08 04:38:45;;;;;;;5.63;2.22;;;;;;;;;;5010343;28;20052;-77
2022/01/08 04:41:11;;;;;;;6.60;2.03;;;;;;;;;;5010852;28;20517;-77
2022/01/08 04:43:42;;;;;;;2.45;1.65;;;;;;;;;;5005936;28;20050;-77
2022/01/08 04:46:08;;;;;;;9.93;2.22;;;;;;;;;;5006328;28;20077;-77
2022/01/08 04:48:34;;;;;;;8.98;2.28;;;;;;;;;;5011469;28;20140;-77
2022/01/08 04:51:00;;;;;;;9.23;2.22;;;;;;;;;;5008665;28;20054;-77
2022/01/08 04:53:26;;;;;;;7.47;2.25;;;;;;;;;;5008220;28;20052;-77
2022/01/08 04:55:52;;;;;;;8.20;2.08;;;;;;;;;;5009660;28;20045;-77
2022/01/08 04:58:18;;;;;;;5.13;1.95;;;;;;;;;;5010178;28;20490;-77
2022/01/08 05:00:44;;;;;;;3.38;1.63;;;;;;;;;;5005980;28;20053;-77
2022/01/08 05:03:10;;;;;;;6.30;2.17;;;;;;;;;;5005266;28;20073;-77
2022/01/08 05:05:36;;;;;;;4.97;1.83;;;;;;;;;;5007346;28;20084;-77
2022/01/08 05:08:02;;;;;;;8.43;2.20;;;;;;;;;;5011584;28;20402;-77
2022/01/08 05:10:33;;;;;;;3.80;2.00;;;;;;;;;;5007443;28;20100;-77
2022/01/08 05:13:03;;;;;;;3.97;1.83;;;;;;;;;;5008646;28;20041;-77
2022/01/08 05:15:29;;;;;;;4.20;2.00;;;;;;;;;;5010065;28;20176;-77
2022/01/08 05:17:55;;;;;;;4.00;1.73;;;;;;;;;;5002497;28;20038;-77
2022/01/08 05:20:22;;;;;;;5.25;2.05;;;;;;;;;;5005230;28;20454;-77
2022/01/08 05:25:18;;;;;;;7.13;1.92;;;;;;;;;;5023874;28;20073;-77
2022/01/08 05:27:44;;;;;;;6.80;2.10;;;;;;;;;;5013684;28;20049;-78
2022/01/08 05:30:10;;;;;;;5.07;2.28;;;;;;;;;;5010835;28;20807;-77
2022/01/08 05:32:37;;;;;;;7.18;2.00;;;;;;;;;;5012174;28;20037;-77
2022/01/08 05:35:03;;;;;;;7.00;2.00;;;;;;;;;;5011972;28;20055;-78
2022/01/08 05:37:29;;;;;;;8.13;2.10;;;;;;;;;;5012462;28;20481;-77
2022/01/08 05:39:55;;;;;;;6.60;1.90;;;;;;;;;;5009529;28;20457;-78
2022/01/08 05:42:21;;;;;;;6.75;1.88;;;;;;;;;;5030238;28;20385;-77
2022/01/08 05:44:47;;;;;;;5.85;1.90;;;;;;;;;;5009668;28;20045;-77
2022/01/08 05:47:14;;;;;;;4.93;2.10;;;;;;;;;;5007374;28;20058;-77
2022/01/08 05:49:40;;;;;;;3.78;1.90;;;;;;;;;;5008176;28;20041;-77
2022/01/08 05:52:07;;;;;;;6.45;2.13;;;;;;;;;;5029259;28;20045;-77
2022/01/08 05:54:33;;;;;;;8.55;2.53;;;;;;;;;;5010698;28;20041;-77
2022/01/08 05:56:59;;;;;;;6.45;1.80;;;;;;;;;;5013134;28;20045;-77
2022/01/08 05:59:28;;;;;;;7.10;2.20;;;;;;;;;;5011324;28;20509;-77
2022/01/08 06:01:55;;;;;;;3.17;1.85;;;;;;;;;;5007422;28;20095;-77
2022/01/08 06:04:21;;;;;;;5.53;1.80;;;;;;;;;;5011400;28;20046;-77
2022/01/08 06:06:47;;;;;;;4.38;1.70;;;;;;;;;;5010524;28;20121;-77
2022/01/08 06:09:13;;;;;;;6.72;2.35;;;;;;;;;;5010695;28;20050;-77
2022/01/08 06:11:39;;;;;;;5.13;1.70;;;;;;;;;;5013424;28;20481;-77
2022/01/08 06:14:05;;;;;;;3.53;1.80;;;;;;;;;;5009204;28;20056;-78
2022/01/08 06:16:35;;;;;;;10.45;2.63;;;;;;;;;;5028219;28;20045;-77
2022/01/08 06:19:01;;;;;;;5.05;1.75;;;;;;;;;;5012304;28;20119;-77
2022/01/08 06:21:27;;;;;;;2.95;1.80;;;;;;;;;;5010638;28;20029;-77
2022/01/08 06:23:54;;;;;;;4.65;2.03;;;;;;;;;;5009938;28;20507;-77
2022/01/08 06:26:19;;;;;;;7.47;2.22;;;;;;;;;;5029584;28;20378;-77
2022/01/08 06:28:46;;;;;;;5.10;1.92;;;;;;;;;;5009071;28;20374;-77
2022/01/08 06:31:12;;;;;;;6.90;1.98;;;;;;;;;;5011222;28;20191;-77
2022/01/08 06:33:38;;;;;;;4.25;1.80;;;;;;;;;;5012661;28;20127;-77
2022/01/08 06:36:04;;;;;;;5.70;1.80;;;;;;;;;;5009688;28;20048;-77
2022/01/08 06:38:30;;;;;;;6.20;1.98;;;;;;;;;;5014568;28;20088;-77
2022/01/08 06:40:56;;;;;;;4.43;2.00;;;;;;;;;;5011290;28;20073;-76
2022/01/08 06:43:22;;;;;;;8.55;2.00;;;;;;;;;;5007693;28;21172;-77
2022/01/08 06:45:48;;;;;;;5.57;1.90;;;;;;;;;;5022596;28;20037;-77
2022/01/08 06:48:13;;;;;;;6.43;1.80;;;;;;;;;;5026689;28;20072;-77
2022/01/08 06:50:39;;;;;;;5.63;1.80;;;;;;;;;;5027193;28;20049;-77
2022/01/08 06:53:05;;;;;;;6.18;1.88;;;;;;;;;;5029321;28;20045;-78
2022/01/08 06:55:32;;;;;;;3.75;1.67;;;;;;;;;;5006171;28;20049;-77
2022/01/08 06:57:59;;;;;;;3.83;1.80;;;;;;;;;;5009180;28;20045;-77
2022/01/08 07:00:25;;;;;;;4.05;1.75;;;;;;;;;;5025769;28;20505;-77
2022/01/08 07:02:51;;;;;;;7.60;1.90;;;;;;;;;;5027114;28;20045;-77
2022/01/08 07:05:17;;;;;;;3.70;1.90;;;;;;;;;;5020327;28;20064;-77
2022/01/08 07:07:43;;;;;;;5.22;2.25;;;;;;;;;;5023627;28;20048;-77
2022/01/08 07:10:09;;;;;;;3.85;1.73;;;;;;;;;;5011836;28;20460;-78
2022/01/08 07:12:35;;;;;;;8.90;1.90;;;;;;;;;;5010326;28;20049;-78
2022/01/08 07:15:01;;;;;;;3.63;1.65;;;;;;;;;;5026460;28;20048;-78
2022/01/08 07:17:27;;;;;;;5.55;1.80;;;;;;;;;;5007887;28;20492;-78
2022/01/08 07:19:53;;;;;;;3.50;1.92;;;;;;;;;;5027945;28;20041;-77
2022/01/08 07:22:20;;;;;;;5.65;2.10;;;;;;;;;;5023382;28;20045;-77
2022/01/08 07:24:46;;;;;;;6.90;2.10;;;;;;;;;;5027337;28;20494;-78
2022/01/08 07:27:12;;;;;;;5.70;2.03;;;;;;;;;;5027689;28;20080;-78
2022/01/08 07:29:38;;;;;;;6.32;1.98;;;;;;;;;;5028561;28;20139;-78
2022/01/08 07:32:05;;;;;;;6.72;1.88;;;;;;;;;;5022556;28;20037;-78
2022/01/08 07:34:31;;;;;;;15.10;4.78;;;;;;;;;;5010438;28;20436;-78
2022/01/08 07:36:57;;;;;;;8.55;3.28;;;;;;;;;;5027824;28;20037;-78
2022/01/08 07:39:23;;;;;;;4.80;2.33;;;;;;;;;;5009109;28;20053;-77
2022/01/08 07:41:49;;;;;;;3.25;2.30;;;;;;;;;;5012948;28;20037;-78
2022/01/08 07:44:15;;;;;;;5.72;2.10;;;;;;;;;;5026472;28;20052;-78
2022/01/08 07:46:41;;;;;;;5.18;1.95;;;;;;;;;;5026946;28;20126;-78
2022/01/08 07:49:09;;;;;;;5.75;2.47;;;;;;;;;;5026422;28;20554;-78
2022/01/08 07:51:35;;;;;;;5.53;2.40;;;;;;;;;;5009433;28;20386;-77
2022/01/08 07:54:01;;;;;;;7.10;2.60;;;;;;;;;;5026319;28;20057;-77
2022/01/08 07:56:27;;;;;;;9.02;2.42;;;;;;;;;;5026676;28;20057;-77
2022/01/08 07:58:53;;;;;;;8.63;2.83;;;;;;;;;;5026245;28;20160;-77
2022/01/08 08:01:19;;;;;;;7.80;2.78;;;;;;;;;;5026542;28;20121;-77
2022/01/08 08:03:45;;;;;;;10.18;2.67;;;;;;;;;;5028050;28;20385;-78
2022/01/08 08:06:11;;;;;;;4.97;2.60;;;;;;;;;;5026950;28;20132;-78
2022/01/08 08:08:37;;;;;;;9.45;2.33;;;;;;;;;;5029513;28;20045;-78
2022/01/08 08:11:03;;;;;;;5.90;2.42;;;;;;;;;;5030106;28;20042;-78
2022/01/08 08:13:32;;;;;;;3.65;2.25;;;;;;;;;;5014462;28;20530;-77
2022/01/08 08:15:58;;;;;;;3.83;2.47;;;;;;;;;;5025183;28;20034;-77
2022/01/08 08:18:24;;;;;;;27.33;13.55;;;;;;;;;;5015478;28;20056;-77
2022/01/08 08:20:50;;;;;;;8.35;3.55;;;;;;;;;;5013658;28;20211;-77
2022/01/08 08:23:16;;;;;;;4.28;2.72;;;;;;;;;;5012573;28;20140;-77
2022/01/08 08:25:42;;;;;;;7.60;2.90;;;;;;;;;;5012215;28;20408;-77
2022/01/08 08:28:08;;;;;;;7.95;2.88;;;;;;;;;;5014542;28;20049;-78
2022/01/08 08:30:34;;;;;;;7.88;2.42;;;;;;;;;;5012269;28;20038;-77
2022/01/08 08:33:01;;;;;;;8.38;2.75;;;;;;;;;;5012656;28;20050;-77
2022/01/08 08:35:27;;;;;;;6.95;2.65;;;;;;;;;;5013432;28;20056;-77
2022/01/08 08:37:53;;;;;;;9.90;2.63;;;;;;;;;;5014091;28;20048;-78
2022/01/08 08:40:19;;;;;;;7.22;2.60;;;;;;;;;;5031814;28;20132;-77
2022/01/08 08:42:45;;;;;;;5.80;2.72;;;;;;;;;;5011820;28;20046;-78
2022/01/08 08:45:12;;;;;;;5.55;2.30;;;;;;;;;;5011586;28;20046;-77
2022/01/08 08:47:39;;;;;;;6.45;2.40;;;;;;;;;;5012866;28;20057;-78
2022/01/08 08:50:06;;;;;;;5.55;2.55;;;;;;;;;;5026274;28;20049;-77
2022/01/08 08:52:33;;;;;;;5.97;2.25;;;;;;;;;;5011815;28;20389;-77
2022/01/08 08:54:59;;;;;;;9.63;2.75;;;;;;;;;;5012406;28;20053;-77
2022/01/08 08:57:25;;;;;;;7.00;2.33;;;;;;;;;;5028419;28;20523;-77
2022/01/08 08:59:51;;;;;;;7.18;2.67;;;;;;;;;;5014085;28;20048;-77
2022/01/08 09:02:21;;;;;;;5.78;2.40;;;;;;;;;;5010853;28;20045;-76
2022/01/08 09:04:47;;;;;;;6.03;2.95;;;;;;;;;;5012817;28;20054;-77
2022/01/08 09:07:13;;;;;;;7.80;3.90;;;;;;;;;;5011736;28;20104;-77
2022/01/08 09:09:39;;;;;;;4.97;2.70;;;;;;;;;;5012609;28;20378;-77
2022/01/08 09:12:05;;;;;;;7.05;2.47;;;;;;;;;;5028866;28;20482;-77
2022/01/08 09:14:31;;;;;;;5.32;2.63;;;;;;;;;;5010188;28;20085;-77
2022/01/08 09:17:02;;;;;;;7.13;2.40;;;;;;;;;;5013676;28;20045;-77
2022/01/08 09:19:28;;;;;;;9.32;2.80;;;;;;;;;;5008460;28;20129;-77
2022/01/08 09:21:54;;;;;;;7.45;2.90;;;;;;;;;;5010971;28;20042;-77
2022/01/08 09:24:20;;;;;;;8.85;2.30;;;;;;;;;;5018216;28;20076;-77
2022/01/08 09:26:46;;;;;;;6.88;2.20;;;;;;;;;;5009351;28;20060;-78
2022/01/08 09:29:12;;;;;;;7.10;2.50;;;;;;;;;;5004037;28;20115;-78
2022/01/08 09:31:39;;;;;;;6.55;2.13;;;;;;;;;;5003873;28;20046;-78
2022/01/08 09:34:06;;;;;;;6.70;2.17;;;;;;;;;;5007359;28;20121;-77
2022/01/08 09:36:32;;;;;;;7.50;2.80;;;;;;;;;;5007903;28;20065;-77
2022/01/08 09:38:59;;;;;;;5.80;2.42;;;;;;;;;;5005688;28;20456;-78
2022/01/08 09:41:25;;;;;;;8.00;2.55;;;;;;;;;;5007227;28;20049;-78
2022/01/08 09:43:51;;;;;;;8.07;2.50;;;;;;;;;;5005419;28;20409;-77
2022/01/08 09:46:21;;;;;;;7.72;2.47;;;;;;;;;;5007211;28;20166;-78
2022/01/08 09:48:47;;;;;;;6.35;3.03;;;;;;;;;;5000928;28;20054;-77
2022/01/08 09:51:13;;;;;;;8.00;2.65;;;;;;;;;;5007967;28;20454;-77
2022/01/08 09:53:39;;;;;;;7.53;2.80;;;;;;;;;;5007805;28;20049;-77
2022/01/08 09:56:05;;;;;;;6.75;2.80;;;;;;;;;;5007372;28;20054;-77
2022/01/08 09:58:32;;;;;;;11.00;3.08;;;;;;;;;;5008911;28;20049;-78
2022/01/08 10:00:58;;;;;;;6.90;3.35;;;;;;;;;;5006880;28;20046;-78
2022/01/08 10:03:26;;;;;;;6.50;2.85;;;;;;;;;;5021759;28;20480;-78
2022/01/08 10:05:56;;;;;;;6.30;3.13;;;;;;;;;;5004469;28;20414;-79
2022/01/08 10:08:23;;;;;;;8.27;3.17;;;;;;;;;;5005905;28;20049;-78
2022/01/08 10:10:59;;;;;;;4.43;3.10;;;;;;;;;;5009702;28;20112;-78
2022/01/08 10:13:27;;;;;;;8.00;3.10;;;;;;;;;;5010225;28;20046;-77
2022/01/08 10:18:40;;;;;;;7.93;3.60;;;;;;;;;;5009347;28;20046;-78
2022/01/08 10:21:23;;;;;;;8.20;3.65;;;;;;;;;;5002882;28;20129;-78
2022/01/08 10:23:53;;;;;;;8.47;3.90;;;;;;;;;;5009246;28;20460;-78
2022/01/08 10:26:20;;;;;;;8.13;3.40;;;;;;;;;;5008802;28;20049;-79
2022/01/08 10:28:46;;;;;;;9.65;3.40;;;;;;;;;;5003101;28;20104;-78
2022/01/08 10:31:17;;;;;;;8.02;2.78;;;;;;;;;;5009906;28;20045;-79
2022/01/08 10:33:48;;;;;;;7.63;3.00;;;;;;;;;;5012211;28;20077;-79
2022/01/08 10:36:15;;;;;;;6.72;3.25;;;;;;;;;;5009604;28;20088;-77
2022/01/08 10:38:41;;;;;;;5.47;3.10;;;;;;;;;;5010309;28;20096;-77
2022/01/08 10:41:15;;;;;;;6.45;3.00;;;;;;;;;;5014015;28;20586;-77
2022/01/08 10:43:41;;;;;;;7.13;3.50;;;;;;;;;;5023110;28;20045;-79
2022/01/08 10:46:12;;;;;;;9.05;3.58;;;;;;;;;;5006948;28;20054;-79
2022/01/08 10:48:42;;;;;;;6.15;3.50;;;;;;;;;;5010289;28;20134;-80
2022/01/08 10:51:09;;;;;;;7.35;3.45;;;;;;;;;;5010486;28;20405;-79
2022/01/08 10:53:54;;;;;;;10.07;4.05;;;;;;;;;;5009410;28;20067;-80
2022/01/08 10:56:24;;;;;;;6.30;4.05;;;;;;;;;;5007273;28;20084;-80
2022/01/08 10:58:55;;;;;;;8.45;3.58;;;;;;;;;;5028848;28;20045;-79
2022/01/08 11:01:41;;;;;;;6.63;3.97;;;;;;;;;;5010314;28;20111;-79
2022/01/08 11:04:08;;;;;;;6.13;3.40;;;;;;;;;;5010944;28;20119;-79
2022/01/08 11:06:48;;;;;;;9.18;3.67;;;;;;;;;;5007316;28;20045;-79
2022/01/08 11:09:14;;;;;;;7.13;3.55;;;;;;;;;;5009133;28;20060;-80
2022/01/08 11:11:40;;;;;;;10.95;4.07;;;;;;;;;;5030378;28;20402;-78
2022/01/08 11:14:08;;;;;;;8.38;4.25;;;;;;;;;;5004929;28;20073;-78
2022/01/08 11:16:37;;;;;;;6.57;3.95;;;;;;;;;;5023414;28;20076;-78
2022/01/08 11:19:04;;;;;;;5.45;3.38;;;;;;;;;;5010339;28;20073;-80
2022/01/08 11:21:31;;;;;;;7.28;3.75;;;;;;;;;;5025336;28;20077;-76
2022/01/08 11:23:59;;;;;;;8.50;3.50;;;;;;;;;;5008327;28;20136;-76
2022/01/08 11:26:27;;;;;;;5.82;3.47;;;;;;;;;;5027878;28;20457;-79
2022/01/08 11:28:56;;;;;;;9.00;4.03;;;;;;;;;;5010028;28;20081;-78
2022/01/08 11:31:23;;;;;;;7.32;4.00;;;;;;;;;;5024668;28;20050;-78
2022/01/08 11:33:55;;;;;;;7.72;4.32;;;;;;;;;;5025818;28;20128;-78
2022/01/08 11:36:21;;;;;;;5.47;4.18;;;;;;;;;;5010607;28;20049;-78
2022/01/08 11:38:48;;;;;;;10.00;5.10;;;;;;;;;;5025871;28;20060;-78
2022/01/08 11:41:15;;;;;;;8.43;5.40;;;;;;;;;;5024800;28;20042;-78
2022/01/08 11:43:42;;;;;;;10.43;5.38;;;;;;;;;;5009197;28;20046;-79
2022/01/08 11:46:09;;;;;;;11.35;6.13;;;;;;;;;;5006848;28;20067;-79
2022/01/08 11:48:40;;;;;;;8.95;6.22;;;;;;;;;;5008960;28;20338;-78
2022/01/08 11:51:07;;;;;;;10.65;7.18;;;;;;;;;;5010948;28;20041;-79
2022/01/08 11:53:45;;;;;;;9.43;6.82;;;;;;;;;;5011229;28;20049;-79
2022/01/08 11:56:21;;;;;;;9.63;7.05;;;;;;;;;;5007333;28;20405;-78
2022/01/08 11:59:01;;;;;;;10.98;7.78;;;;;;;;;;5003939;28;20045;-78
2022/01/08 12:01:27;;;;;;;11.63;7.78;;;;;;;;;;5024689;28;20136;-79
2022/01/08 12:03:55;;;;;;;11.77;7.97;;;;;;;;;;5009418;28;20417;-79
2022/01/08 12:06:32;;;;;;;11.02;7.05;;;;;;;;;;5006930;28;20053;-77
2022/01/08 12:09:10;;;;;;;7.60;6.38;;;;;;;;;;5006141;28;20446;-79
2022/01/08 12:11:42;;;;;;;8.27;6.03;;;;;;;;;;5010229;28;20501;-79
2022/01/08 12:14:09;;;;;;;9.30;6.55;;;;;;;;;;5002651;28;20382;-78
2022/01/08 12:16:36;;;;;;;7.60;4.90;;;;;;;;;;5008263;28;20084;-78
2022/01/08 12:19:04;;;;;;;6.32;4.47;;;;;;;;;;5026790;28;20436;-78
2022/01/08 12:21:34;;;;;;;5.32;3.40;;;;;;;;;;5009133;28;20148;-79
2022/01/08 12:24:20;;;;;;;4.68;3.38;;;;;;;;;;5025737;28;20111;-77
2022/01/08 12:26:47;;;;;;;3.13;2.40;;;;;;;;;;5007126;28;20111;-77
2022/01/08 12:29:31;;;;;;;2.45;2.00;;;;;;;;;;5025736;28;20325;-79
2022/01/08 12:32:16;;;;;;;1.77;1.67;;;;;;;;;;5026449;28;20037;-80
2022/01/08 12:34:48;;;;;;;2.13;1.80;;;;;;;;;;5003235;28;20319;-81
2022/01/08 12:37:15;;;;;;;3.33;2.38;;;;;;;;;;5007483;28;20485;-80
2022/01/08 12:39:49;;;;;;;3.45;2.30;;;;;;;;;;5028125;28;20497;-80
2022/01/08 12:42:27;;;;;;;2.00;1.90;;;;;;;;;;5025245;28;20137;-80
2022/01/08 12:45:13;;;;;;;4.00;2.00;;;;;;;;;;5004117;28;20133;-81
2022/01/08 12:47:42;;;;;;;2.42;1.90;;;;;;;;;;5007979;28;20158;-80
2022/01/08 12:50:18;;;;;;;6.15;3.03;;;;;;;;;;5020344;28;20042;-81
2022/01/08 12:53:02;;;;;;;3.55;3.25;;;;;;;;;;5005257;28;20048;-81
2022/01/08 12:55:28;;;;;;;5.50;3.85;;;;;;;;;;5013838;28;20461;-81
2022/01/08 12:57:55;;;;;;;5.00;4.10;;;;;;;;;;5032279;28;20116;-80
2022/01/08 13:00:21;;;;;;;5.63;4.90;;;;;;;;;;5012798;28;20060;-80
2022/01/08 13:02:47;;;;;;;7.85;4.47;;;;;;;;;;5013267;28;20152;-80
2022/01/08 13:05:13;;;;;;;6.63;4.80;;;;;;;;;;5028055;28;20434;-80
2022/01/08 13:07:52;;;;;;;10.40;6.50;;;;;;;;;;5009980;28;20091;-80
2022/01/08 13:10:19;;;;;;;10.88;7.70;;;;;;;;;;5011676;28;20042;-80
2022/01/08 13:13:04;;;;;;;11.90;7.65;;;;;;;;;;5018049;28;20037;-80
2022/01/08 13:15:34;;;;;;;17.33;9.48;;;;;;;;;;5009566;28;20042;-79
2022/01/08 13:18:19;;;;;;;11.77;7.00;;;;;;;;;;5031103;28;20048;-80
2022/01/08 13:20:45;;;;;;;13.50;8.50;;;;;;;;;;5006796;28;20413;-79
2022/01/08 13:23:12;;;;;;;10.52;7.68;;;;;;;;;;5029595;28;20130;-80
2022/01/08 13:25:38;;;;;;;17.67;11.15;;;;;;;;;;4994078;28;20050;-80
2022/01/08 13:28:04;;;;;;;15.90;9.82;;;;;;;;;;4994686;28;20132;-80
2022/01/08 13:30:30;;;;;;;14.85;9.18;;;;;;;;;;4989916;28;20054;-79
2022/01/08 13:33:03;;;;;;;14.20;8.82;;;;;;;;;;4990150;28;20205;-80
2022/01/08 13:35:30;;;;;;;11.40;7.25;;;;;;;;;;5003295;28;20057;-79
2022/01/08 13:37:56;;;;;;;13.95;6.93;;;;;;;;;;4993627;28;20049;-82
2022/01/08 13:40:26;;;;;;;18.60;12.80;;;;;;;;;;4993629;28;20049;-85
2022/01/08 13:42:52;;;;;;;9.57;6.72;;;;;;;;;;5009875;28;20038;-80
2022/01/08 13:45:22;;;;;;;8.57;6.35;;;;;;;;;;5008451;28;20045;-80
2022/01/08 13:47:49;;;;;;;9.75;8.00;;;;;;;;;;5011914;28;20045;-78
2022/01/08 13:50:20;;;;;;;11.88;6.65;;;;;;;;;;5011081;28;20053;-81
2022/01/08 13:52:50;;;;;;;11.40;7.60;;;;;;;;;;4992773;28;20375;-79
2022/01/08 13:55:16;;;;;;;12.70;8.48;;;;;;;;;;4993811;28;20056;-78
2022/01/08 13:57:43;;;;;;;14.82;8.98;;;;;;;;;;5009664;28;20061;-81
2022/01/08 14:00:15;;;;;;;12.18;9.15;;;;;;;;;;5003862;28;20038;-82
2022/01/08 14:02:41;;;;;;;16.08;10.20;;;;;;;;;;4984570;28;20505;-82
2022/01/08 14:05:08;;;;;;;10.55;8.02;;;;;;;;;;5006925;28;20068;-82
2022/01/08 14:07:44;;;;;;;10.93;8.63;;;;;;;;;;4992351;28;20049;-81
2022/01/08 14:10:12;;;;;;;11.52;7.47;;;;;;;;;;4992223;28;20128;-80
2022/01/08 14:12:38;;;;;;;11.38;8.45;;;;;;;;;;4991970;28;20695;-80
2022/01/08 14:15:05;;;;;;;11.13;7.88;;;;;;;;;;4989193;28;20490;-78
2022/01/08 14:17:33;;;;;;;16.48;10.10;;;;;;;;;;4991633;28;20065;-74
2022/01/08 14:19:59;;;;;;;14.65;10.40;;;;;;;;;;4992857;28;20056;-80
2022/01/08 14:22:27;;;;;;;12.27;9.52;;;;;;;;;;4993133;28;20485;-80
2022/01/08 14:24:53;;;;;;;16.88;13.07;;;;;;;;;;5006545;28;20062;-80
2022/01/08 14:27:22;;;;;;;13.77;9.90;;;;;;;;;;4993253;28;20124;-80
2022/01/08 14:30:05;;;;;;;14.50;10.35;;;;;;;;;;5011807;28;20049;-80
2022/01/08 14:32:32;;;;;;;17.77;14.20;;;;;;;;;;5018069;28;20041;-80
2022/01/08 14:35:01;;;;;;;20.73;14.65;;;;;;;;;;5008114;28;20386;-80
2022/01/08 14:37:38;;;;;;;17.35;13.07;;;;;;;;;;4992105;28;20056;-80
2022/01/08 14:40:15;;;;;;;11.07;8.00;;;;;;;;;;4988775;28;20508;-80
2022/01/08 14:42:41;;;;;;;10.75;7.50;;;;;;;;;;5013699;28;20366;-80
2022/01/08 14:45:07;;;;;;;23.75;16.70;;;;;;;;;;4995713;28;20038;-80
2022/01/08 14:47:38;;;;;;;11.90;8.70;;;;;;;;;;5010695;28;20519;-80
2022/01/08 14:50:06;;;;;;;15.07;11.20;;;;;;;;;;4994814;28;20402;-80
2022/01/08 14:52:32;;;;;;;14.55;9.75;;;;;;;;;;4993006;28;20045;-80
2022/01/08 14:54:58;;;;;;;13.98;10.43;;;;;;;;;;5010460;28;20501;-79
2022/01/08 14:57:24;;;;;;;12.07;8.73;;;;;;;;;;5014043;28;20042;-80
2022/01/08 14:59:50;;;;;;;17.98;10.63;;;;;;;;;;4991989;28;20064;-80
2022/01/08 15:02:16;;;;;;;13.77;9.10;;;;;;;;;;4999298;28;20093;-80
2022/01/08 15:04:43;;;;;;;13.30;9.25;;;;;;;;;;5014706;28;20081;-80
2022/01/08 15:07:10;;;;;;;15.32;11.48;;;;;;;;;;5009359;28;20046;-80
2022/01/08 15:09:36;;;;;;;11.70;8.80;;;;;;;;;;5012638;28;20041;-80